Terminal Aerodrome Forecast
Issued by NWS

Home | Current Version | Previous Version | Text Only | Print | Product List | Glossary On
Versions: 1 2 3 4 5 6 7 8 9 10 11 12
000
FTUS45 KRIW 301700
TAFJAC
TAF
KJAC 301720Z 3018/3118 VRB05KT P6SM SCT070 BKN200
     FM302000 21008KT P6SM VCTS SCT060CB BKN100
     FM310300 VRB05KT P6SM SCT070 BKN120
     FM311400 VRB06KT P6SM SCT090
      AMD LTD TO CLD VIS AND WIND=

USA.gov is the U.S. government's official web portal to all federal, state and local government web resources and services.